sensor_id;sensor_type;location;lat;lon;timestamp;temperature;humidity
12959;DHT22;6544;51.666;6.634;2023-07-13T00:01:45;19.60;1.00
12959;DHT22;6544;51.666;6.634;2023-07-13T00:04:15;19.70;1.00
12959;DHT22;6544;51.666;6.634;2023-07-13T00:06:43;19.60;1.00
12959;DHT22;6544;51.666;6.634;2023-07-13T00:09:11;19.50;1.00
12959;DHT22;6544;51.666;6.634;2023-07-13T00:11:39;19.60;1.00
12959;DHT22;6544;51.666;6.634;2023-07-13T00:14:08;19.50;1.00
12959;DHT22;6544;51.666;6.634;2023-07-13T00:16:37;19.60;1.00
12959;DHT22;6544;51.666;6.634;2023-07-13T00:19:04;19.50;1.00
12959;DHT22;6544;51.666;6.634;2023-07-13T00:21:31;19.40;1.00
12959;DHT22;6544;51.666;6.634;2023-07-13T00:23:58;19.40;1.00
12959;DHT22;6544;51.666;6.634;2023-07-13T00:26:26;19.30;1.00
12959;DHT22;6544;51.666;6.634;2023-07-13T00:28:52;19.30;1.00
12959;DHT22;6544;51.666;6.634;2023-07-13T00:31:21;19.30;1.00
12959;DHT22;6544;51.666;6.634;2023-07-13T00:33:47;19.20;1.00
12959;DHT22;6544;51.666;6.634;2023-07-13T00:36:14;19.20;99.90
12959;DHT22;6544;51.666;6.634;2023-07-13T00:38:41;18.90;1.00
12959;DHT22;6544;51.666;6.634;2023-07-13T00:41:08;18.80;1.00
12959;DHT22;6544;51.666;6.634;2023-07-13T00:43:35;18.80;1.00
12959;DHT22;6544;51.666;6.634;2023-07-13T00:48:58;18.70;1.00
12959;DHT22;6544;51.666;6.634;2023-07-13T00:51:31;18.80;1.00
12959;DHT22;6544;51.666;6.634;2023-07-13T00:54:01;18.70;1.00
12959;DHT22;6544;51.666;6.634;2023-07-13T00:56:30;18.80;1.00
12959;DHT22;6544;51.666;6.634;2023-07-13T00:59:00;18.70;1.00
12959;DHT22;6544;51.666;6.634;2023-07-13T01:01:27;18.60;1.00
12959;DHT22;6544;51.666;6.634;2023-07-13T01:03:56;18.60;1.00
12959;DHT22;6544;51.666;6.634;2023-07-13T01:06:23;18.50;1.00
12959;DHT22;6544;51.666;6.634;2023-07-13T01:08:50;18.40;1.00
12959;DHT22;6544;51.666;6.634;2023-07-13T01:11:19;18.40;1.00
12959;DHT22;6544;51.666;6.634;2023-07-13T01:13:47;18.30;1.00
12959;DHT22;6544;51.666;6.634;2023-07-13T01:16:21;18.10;1.00
12959;DHT22;6544;51.666;6.634;2023-07-13T01:18:48;18.10;1.00
12959;DHT22;6544;51.666;6.634;2023-07-13T01:21:17;18.10;1.00
12959;DHT22;6544;51.666;6.634;2023-07-13T01:23:44;18.00;1.00
12959;DHT22;6544;51.666;6.634;2023-07-13T01:26:12;18.20;1.00
12959;DHT22;6544;51.666;6.634;2023-07-13T01:28:39;18.20;1.00
12959;DHT22;6544;51.666;6.634;2023-07-13T01:31:05;18.20;1.00
12959;DHT22;6544;51.666;6.634;2023-07-13T01:33:33;18.30;1.00
12959;DHT22;6544;51.666;6.634;2023-07-13T01:36:02;18.30;1.00
12959;DHT22;6544;51.666;6.634;2023-07-13T01:38:30;18.30;1.00
12959;DHT22;6544;51.666;6.634;2023-07-13T01:40:57;18.30;1.00
12959;DHT22;6544;51.666;6.634;2023-07-13T01:43:24;18.30;1.00
12959;DHT22;6544;51.666;6.634;2023-07-13T01:45:52;18.30;1.00
12959;DHT22;6544;51.666;6.634;2023-07-13T01:48:18;18.40;1.00
12959;DHT22;6544;51.666;6.634;2023-07-13T01:50:46;18.40;1.00
12959;DHT22;6544;51.666;6.634;2023-07-13T01:53:14;18.30;1.00
12959;DHT22;6544;51.666;6.634;2023-07-13T01:55:42;18.30;1.00
12959;DHT22;6544;51.666;6.634;2023-07-13T01:58:09;18.20;1.00
12959;DHT22;6544;51.666;6.634;2023-07-13T02:00:36;18.10;1.00
12959;DHT22;6544;51.666;6.634;2023-07-13T02:03:03;17.90;1.00
12959;DHT22;6544;51.666;6.634;2023-07-13T02:05:30;17.90;1.00
12959;DHT22;6544;51.666;6.634;2023-07-13T02:07:57;17.90;1.00
12959;DHT22;6544;51.666;6.634;2023-07-13T02:10:24;17.70;1.00
12959;DHT22;6544;51.666;6.634;2023-07-13T02:12:52;17.60;1.00
12959;DHT22;6544;51.666;6.634;2023-07-13T02:15:19;17.70;1.00
12959;DHT22;6544;51.666;6.634;2023-07-13T02:17:46;17.80;1.00
12959;DHT22;6544;51.666;6.634;2023-07-13T02:20:13;17.80;1.00
12959;DHT22;6544;51.666;6.634;2023-07-13T02:22:40;17.80;1.00
12959;DHT22;6544;51.666;6.634;2023-07-13T02:25:07;17.70;1.00
12959;DHT22;6544;51.666;6.634;2023-07-13T02:27:34;17.70;1.00
12959;DHT22;6544;51.666;6.634;2023-07-13T02:30:03;17.80;1.00
12959;DHT22;6544;51.666;6.634;2023-07-13T02:32:30;17.70;1.00
12959;DHT22;6544;51.666;6.634;2023-07-13T02:34:57;17.60;1.00
12959;DHT22;6544;51.666;6.634;2023-07-13T02:37:23;17.60;1.00
12959;DHT22;6544;51.666;6.634;2023-07-13T02:39:50;17.50;1.00
12959;DHT22;6544;51.666;6.634;2023-07-13T02:42:17;17.40;1.00
12959;DHT22;6544;51.666;6.634;2023-07-13T02:44:44;17.40;1.00
12959;DHT22;6544;51.666;6.634;2023-07-13T02:47:12;17.30;1.00
12959;DHT22;6544;51.666;6.634;2023-07-13T02:49:39;17.40;1.00
12959;DHT22;6544;51.666;6.634;2023-07-13T02:52:06;17.40;1.00
12959;DHT22;6544;51.666;6.634;2023-07-13T02:54:33;17.30;1.00
12959;DHT22;6544;51.666;6.634;2023-07-13T02:57:00;17.30;1.00
12959;DHT22;6544;51.666;6.634;2023-07-13T02:59:27;17.30;1.00
12959;DHT22;6544;51.666;6.634;2023-07-13T03:01:54;17.30;1.00
12959;DHT22;6544;51.666;6.634;2023-07-13T03:04:22;17.30;1.00
12959;DHT22;6544;51.666;6.634;2023-07-13T03:06:49;17.40;1.00
12959;DHT22;6544;51.666;6.634;2023-07-13T03:09:16;17.30;1.00
12959;DHT22;6544;51.666;6.634;2023-07-13T03:11:43;17.10;1.00
12959;DHT22;6544;51.666;6.634;2023-07-13T03:14:10;17.10;1.00
12959;DHT22;6544;51.666;6.634;2023-07-13T03:16:37;17.00;1.00
12959;DHT22;6544;51.666;6.634;2023-07-13T03:19:04;17.00;1.00
12959;DHT22;6544;51.666;6.634;2023-07-13T03:21:32;17.00;1.00
12959;DHT22;6544;51.666;6.634;2023-07-13T03:23:59;17.10;1.00
12959;DHT22;6544;51.666;6.634;2023-07-13T03:26:26;17.00;1.00
12959;DHT22;6544;51.666;6.634;2023-07-13T03:28:53;16.90;1.00
12959;DHT22;6544;51.666;6.634;2023-07-13T03:31:22;16.90;1.00
12959;DHT22;6544;51.666;6.634;2023-07-13T03:33:50;16.70;1.00
12959;DHT22;6544;51.666;6.634;2023-07-13T03:36:19;16.80;1.00
12959;DHT22;6544;51.666;6.634;2023-07-13T03:38:48;16.90;1.00
12959;DHT22;6544;51.666;6.634;2023-07-13T03:41:15;16.90;1.00
12959;DHT22;6544;51.666;6.634;2023-07-13T03:43:43;17.00;1.00
12959;DHT22;6544;51.666;6.634;2023-07-13T03:46:10;17.00;1.00
12959;DHT22;6544;51.666;6.634;2023-07-13T03:48:37;17.00;1.00
12959;DHT22;6544;51.666;6.634;2023-07-13T03:51:05;17.00;1.00
12959;DHT22;6544;51.666;6.634;2023-07-13T03:53:32;17.00;1.00
12959;DHT22;6544;51.666;6.634;2023-07-13T03:56:00;16.80;1.00
12959;DHT22;6544;51.666;6.634;2023-07-13T03:58:30;16.80;1.00
12959;DHT22;6544;51.666;6.634;2023-07-13T04:00:58;16.90;1.00
12959;DHT22;6544;51.666;6.634;2023-07-13T04:03:25;16.80;1.00
12959;DHT22;6544;51.666;6.634;2023-07-13T04:05:53;16.90;1.00
12959;DHT22;6544;51.666;6.634;2023-07-13T04:08:20;16.80;1.00
12959;DHT22;6544;51.666;6.634;2023-07-13T04:10:47;16.80;1.00
12959;DHT22;6544;51.666;6.634;2023-07-13T04:13:15;16.90;1.00
12959;DHT22;6544;51.666;6.634;2023-07-13T04:15:42;17.00;1.00
12959;DHT22;6544;51.666;6.634;2023-07-13T04:18:09;17.00;1.00
12959;DHT22;6544;51.666;6.634;2023-07-13T04:20:36;17.00;1.00
12959;DHT22;6544;51.666;6.634;2023-07-13T04:23:03;17.00;1.00
12959;DHT22;6544;51.666;6.634;2023-07-13T04:25:30;16.90;1.00
12959;DHT22;6544;51.666;6.634;2023-07-13T04:27:56;17.00;1.00
12959;DHT22;6544;51.666;6.634;2023-07-13T04:30:25;17.00;1.00
12959;DHT22;6544;51.666;6.634;2023-07-13T04:32:52;16.90;1.00
12959;DHT22;6544;51.666;6.634;2023-07-13T04:35:19;17.00;1.00
12959;DHT22;6544;51.666;6.634;2023-07-13T04:37:48;17.00;1.00
12959;DHT22;6544;51.666;6.634;2023-07-13T04:40:16;16.80;1.00
12959;DHT22;6544;51.666;6.634;2023-07-13T04:42:44;16.90;1.00
12959;DHT22;6544;51.666;6.634;2023-07-13T04:45:11;16.80;1.00
12959;DHT22;6544;51.666;6.634;2023-07-13T04:47:40;16.70;1.00
12959;DHT22;6544;51.666;6.634;2023-07-13T04:50:08;16.60;1.00
12959;DHT22;6544;51.666;6.634;2023-07-13T04:52:36;16.60;1.00
12959;DHT22;6544;51.666;6.634;2023-07-13T04:55:03;16.50;1.00
12959;DHT22;6544;51.666;6.634;2023-07-13T04:57:32;16.60;1.00
12959;DHT22;6544;51.666;6.634;2023-07-13T04:59:59;16.60;1.00
12959;DHT22;6544;51.666;6.634;2023-07-13T05:02:26;16.60;1.00
12959;DHT22;6544;51.666;6.634;2023-07-13T05:04:55;16.60;1.00
12959;DHT22;6544;51.666;6.634;2023-07-13T05:07:22;16.60;1.00
12959;DHT22;6544;51.666;6.634;2023-07-13T05:09:49;16.70;1.00
12959;DHT22;6544;51.666;6.634;2023-07-13T05:12:15;16.60;1.00
12959;DHT22;6544;51.666;6.634;2023-07-13T05:14:42;16.60;1.00
12959;DHT22;6544;51.666;6.634;2023-07-13T05:17:09;16.60;1.00
12959;DHT22;6544;51.666;6.634;2023-07-13T05:19:36;16.70;1.00
12959;DHT22;6544;51.666;6.634;2023-07-13T05:22:04;16.70;1.00
12959;DHT22;6544;51.666;6.634;2023-07-13T05:24:31;16.70;1.00
12959;DHT22;6544;51.666;6.634;2023-07-13T05:26:59;16.50;21.90
12959;DHT22;6544;51.666;6.634;2023-07-13T05:29:26;16.60;43.00
12959;DHT22;6544;51.666;6.634;2023-07-13T05:31:53;16.70;46.00
12959;DHT22;6544;51.666;6.634;2023-07-13T05:34:19;16.70;71.10
12959;DHT22;6544;51.666;6.634;2023-07-13T05:36:46;16.80;25.90
12959;DHT22;6544;51.666;6.634;2023-07-13T05:39:15;16.90;1.00
12959;DHT22;6544;51.666;6.634;2023-07-13T05:41:42;16.70;99.90
12959;DHT22;6544;51.666;6.634;2023-07-13T05:44:08;16.80;87.90
12959;DHT22;6544;51.666;6.634;2023-07-13T05:46:35;17.00;33.70
12959;DHT22;6544;51.666;6.634;2023-07-13T05:49:02;17.00;9.60
12959;DHT22;6544;51.666;6.634;2023-07-13T05:51:29;17.00;30.10
12959;DHT22;6544;51.666;6.634;2023-07-13T05:53:56;17.10;11.80
12959;DHT22;6544;51.666;6.634;2023-07-13T05:56:24;17.10;30.90
12959;DHT22;6544;51.666;6.634;2023-07-13T05:58:52;17.20;24.40
12959;DHT22;6544;51.666;6.634;2023-07-13T06:01:19;17.00;99.90
12959;DHT22;6544;51.666;6.634;2023-07-13T06:03:46;17.20;38.80
12959;DHT22;6544;51.666;6.634;2023-07-13T06:06:13;17.30;32.30
12959;DHT22;6544;51.666;6.634;2023-07-13T06:08:40;17.40;24.10
12959;DHT22;6544;51.666;6.634;2023-07-13T06:11:10;17.40;4.00
12959;DHT22;6544;51.666;6.634;2023-07-13T06:13:40;17.30;42.00
12959;DHT22;6544;51.666;6.634;2023-07-13T06:16:07;17.30;90.10
12959;DHT22;6544;51.666;6.634;2023-07-13T06:18:35;17.30;99.90
12959;DHT22;6544;51.666;6.634;2023-07-13T06:21:06;17.40;99.90
12959;DHT22;6544;51.666;6.634;2023-07-13T06:23:34;17.50;74.20
12959;DHT22;6544;51.666;6.634;2023-07-13T06:26:01;17.60;27.90
12959;DHT22;6544;51.666;6.634;2023-07-13T06:28:28;17.50;29.50
12959;DHT22;6544;51.666;6.634;2023-07-13T06:30:57;17.40;69.90
12959;DHT22;6544;51.666;6.634;2023-07-13T06:33:24;17.50;87.40
12959;DHT22;6544;51.666;6.634;2023-07-13T06:35:51;17.60;59.80
12959;DHT22;6544;51.666;6.634;2023-07-13T06:38:18;17.60;95.00
12959;DHT22;6544;51.666;6.634;2023-07-13T06:40:45;17.70;37.30
12959;DHT22;6544;51.666;6.634;2023-07-13T06:43:12;17.70;84.30
12959;DHT22;6544;51.666;6.634;2023-07-13T06:45:42;17.70;99.90
12959;DHT22;6544;51.666;6.634;2023-07-13T06:48:10;17.60;39.40
12959;DHT22;6544;51.666;6.634;2023-07-13T06:50:37;17.40;99.90
12959;DHT22;6544;51.666;6.634;2023-07-13T06:53:06;17.60;95.60
12959;DHT22;6544;51.666;6.634;2023-07-13T06:55:33;17.60;49.60
12959;DHT22;6544;51.666;6.634;2023-07-13T06:58:00;17.50;99.90
12959;DHT22;6544;51.666;6.634;2023-07-13T07:00:27;17.50;90.50
12959;DHT22;6544;51.666;6.634;2023-07-13T07:02:54;17.40;99.90
12959;DHT22;6544;51.666;6.634;2023-07-13T07:05:22;17.40;99.90
12959;DHT22;6544;51.666;6.634;2023-07-13T07:07:49;17.50;99.90
12959;DHT22;6544;51.666;6.634;2023-07-13T07:10:16;17.70;99.90
12959;DHT22;6544;51.666;6.634;2023-07-13T07:12:43;17.80;47.00
12959;DHT22;6544;51.666;6.634;2023-07-13T07:15:11;17.80;99.90
12959;DHT22;6544;51.666;6.634;2023-07-13T07:17:38;17.80;81.20
12959;DHT22;6544;51.666;6.634;2023-07-13T07:20:06;17.80;60.90
12959;DHT22;6544;51.666;6.634;2023-07-13T07:22:34;18.00;27.80
12959;DHT22;6544;51.666;6.634;2023-07-13T07:25:01;18.10;13.00
12959;DHT22;6544;51.666;6.634;2023-07-13T07:27:28;18.10;1.00
12959;DHT22;6544;51.666;6.634;2023-07-13T07:29:55;18.10;1.00
12959;DHT22;6544;51.666;6.634;2023-07-13T07:32:23;17.90;1.00
12959;DHT22;6544;51.666;6.634;2023-07-13T07:34:50;17.90;6.30
12959;DHT22;6544;51.666;6.634;2023-07-13T07:37:17;17.90;27.40
12959;DHT22;6544;51.666;6.634;2023-07-13T07:39:45;18.10;11.50
12959;DHT22;6544;51.666;6.634;2023-07-13T07:42:12;18.10;1.00
12959;DHT22;6544;51.666;6.634;2023-07-13T07:44:40;17.80;90.40
12959;DHT22;6544;51.666;6.634;2023-07-13T07:47:07;18.00;99.90
12959;DHT22;6544;51.666;6.634;2023-07-13T07:49:34;18.20;9.00
12959;DHT22;6544;51.666;6.634;2023-07-13T07:52:01;18.30;1.00
12959;DHT22;6544;51.666;6.634;2023-07-13T07:54:28;18.40;1.00
12959;DHT22;6544;51.666;6.634;2023-07-13T07:56:56;18.50;1.00
12959;DHT22;6544;51.666;6.634;2023-07-13T07:59:23;18.40;1.00
12959;DHT22;6544;51.666;6.634;2023-07-13T08:01:50;18.50;1.00
12959;DHT22;6544;51.666;6.634;2023-07-13T08:04:17;18.50;1.00
12959;DHT22;6544;51.666;6.634;2023-07-13T08:06:44;18.40;1.00
12959;DHT22;6544;51.666;6.634;2023-07-13T08:09:10;18.30;1.00
12959;DHT22;6544;51.666;6.634;2023-07-13T08:11:37;18.40;1.00
12959;DHT22;6544;51.666;6.634;2023-07-13T08:14:06;18.30;1.00
12959;DHT22;6544;51.666;6.634;2023-07-13T08:16:32;18.50;1.00
12959;DHT22;6544;51.666;6.634;2023-07-13T08:18:59;18.50;1.00
12959;DHT22;6544;51.666;6.634;2023-07-13T08:21:26;18.50;1.00
12959;DHT22;6544;51.666;6.634;2023-07-13T08:23:53;18.50;1.00
12959;DHT22;6544;51.666;6.634;2023-07-13T08:26:20;18.50;1.00
12959;DHT22;6544;51.666;6.634;2023-07-13T08:28:47;18.50;1.00
12959;DHT22;6544;51.666;6.634;2023-07-13T08:31:16;18.50;1.00
12959;DHT22;6544;51.666;6.634;2023-07-13T08:33:43;18.60;1.00
12959;DHT22;6544;51.666;6.634;2023-07-13T08:36:09;18.80;1.00
12959;DHT22;6544;51.666;6.634;2023-07-13T08:38:36;18.80;1.00
12959;DHT22;6544;51.666;6.634;2023-07-13T08:41:11;18.70;1.00
12959;DHT22;6544;51.666;6.634;2023-07-13T08:43:38;18.90;1.00
12959;DHT22;6544;51.666;6.634;2023-07-13T08:46:09;18.90;1.00
12959;DHT22;6544;51.666;6.634;2023-07-13T08:48:43;18.70;1.00
12959;DHT22;6544;51.666;6.634;2023-07-13T08:51:22;18.70;1.00
12959;DHT22;6544;51.666;6.634;2023-07-13T08:53:52;18.80;1.00
12959;DHT22;6544;51.666;6.634;2023-07-13T08:56:23;18.90;1.00
12959;DHT22;6544;51.666;6.634;2023-07-13T08:58:55;19.00;1.00
12959;DHT22;6544;51.666;6.634;2023-07-13T09:01:24;19.00;1.00
12959;DHT22;6544;51.666;6.634;2023-07-13T09:04:02;18.90;1.00
12959;DHT22;6544;51.666;6.634;2023-07-13T09:06:35;18.70;1.00
12959;DHT22;6544;51.666;6.634;2023-07-13T09:09:09;18.90;1.00
12959;DHT22;6544;51.666;6.634;2023-07-13T09:11:45;19.00;1.00
12959;DHT22;6544;51.666;6.634;2023-07-13T09:14:33;19.20;1.00
12959;DHT22;6544;51.666;6.634;2023-07-13T09:17:04;19.10;1.00
12959;DHT22;6544;51.666;6.634;2023-07-13T09:19:33;18.90;1.00
12959;DHT22;6544;51.666;6.634;2023-07-13T09:22:03;19.10;1.00
12959;DHT22;6544;51.666;6.634;2023-07-13T09:24:38;19.30;1.00
12959;DHT22;6544;51.666;6.634;2023-07-13T09:27:13;19.30;1.00
12959;DHT22;6544;51.666;6.634;2023-07-13T09:29:48;19.70;1.00
12959;DHT22;6544;51.666;6.634;2023-07-13T09:32:18;19.90;1.00
12959;DHT22;6544;51.666;6.634;2023-07-13T09:34:53;20.00;1.00
12959;DHT22;6544;51.666;6.634;2023-07-13T09:37:21;20.10;1.00
12959;DHT22;6544;51.666;6.634;2023-07-13T09:39:49;20.10;1.00
12959;DHT22;6544;51.666;6.634;2023-07-13T09:42:19;20.30;1.00
12959;DHT22;6544;51.666;6.634;2023-07-13T09:44:58;20.30;1.00
12959;DHT22;6544;51.666;6.634;2023-07-13T09:47:27;20.30;1.00
12959;DHT22;6544;51.666;6.634;2023-07-13T09:49:57;20.50;1.00
12959;DHT22;6544;51.666;6.634;2023-07-13T09:52:26;20.70;1.00
12959;DHT22;6544;51.666;6.634;2023-07-13T09:54:53;20.50;1.00
12959;DHT22;6544;51.666;6.634;2023-07-13T09:57:26;20.80;1.00
12959;DHT22;6544;51.666;6.634;2023-07-13T09:59:54;20.80;1.00
12959;DHT22;6544;51.666;6.634;2023-07-13T10:02:27;20.80;1.00
12959;DHT22;6544;51.666;6.634;2023-07-13T10:05:02;20.80;1.00
12959;DHT22;6544;51.666;6.634;2023-07-13T10:07:30;20.90;1.00
12959;DHT22;6544;51.666;6.634;2023-07-13T10:09:59;21.00;1.00
12959;DHT22;6544;51.666;6.634;2023-07-13T10:12:29;21.10;1.00
12959;DHT22;6544;51.666;6.634;2023-07-13T10:14:58;21.10;1.00
12959;DHT22;6544;51.666;6.634;2023-07-13T10:17:29;21.20;1.00
12959;DHT22;6544;51.666;6.634;2023-07-13T10:20:01;21.10;1.00
12959;DHT22;6544;51.666;6.634;2023-07-13T10:22:37;21.20;1.00
12959;DHT22;6544;51.666;6.634;2023-07-13T10:25:15;21.20;1.00
12959;DHT22;6544;51.666;6.634;2023-07-13T10:27:43;21.20;1.00
12959;DHT22;6544;51.666;6.634;2023-07-13T10:30:14;21.30;1.00
12959;DHT22;6544;51.666;6.634;2023-07-13T10:32:43;21.40;1.00
12959;DHT22;6544;51.666;6.634;2023-07-13T10:35:15;21.40;1.00
12959;DHT22;6544;51.666;6.634;2023-07-13T10:37:49;21.40;1.00
12959;DHT22;6544;51.666;6.634;2023-07-13T10:40:19;21.40;1.00
12959;DHT22;6544;51.666;6.634;2023-07-13T10:42:50;21.70;1.00
12959;DHT22;6544;51.666;6.634;2023-07-13T10:45:20;21.70;1.00
12959;DHT22;6544;51.666;6.634;2023-07-13T10:47:49;21.80;1.00
12959;DHT22;6544;51.666;6.634;2023-07-13T10:50:21;21.80;1.00
12959;DHT22;6544;51.666;6.634;2023-07-13T10:52:51;21.40;1.00
12959;DHT22;6544;51.666;6.634;2023-07-13T10:55:37;21.70;1.00
12959;DHT22;6544;51.666;6.634;2023-07-13T10:58:13;21.90;1.00
12959;DHT22;6544;51.666;6.634;2023-07-13T11:00:47;22.00;1.00
12959;DHT22;6544;51.666;6.634;2023-07-13T11:03:18;22.20;1.00
12959;DHT22;6544;51.666;6.634;2023-07-13T11:05:50;22.30;99.90
12959;DHT22;6544;51.666;6.634;2023-07-13T11:08:32;22.40;99.90
12959;DHT22;6544;51.666;6.634;2023-07-13T11:10:59;22.50;99.90
12959;DHT22;6544;51.666;6.634;2023-07-13T11:13:37;22.50;99.90
12959;DHT22;6544;51.666;6.634;2023-07-13T11:16:13;22.60;99.90
12959;DHT22;6544;51.666;6.634;2023-07-13T11:18:40;22.60;99.90
12959;DHT22;6544;51.666;6.634;2023-07-13T11:21:15;22.70;99.90
12959;DHT22;6544;51.666;6.634;2023-07-13T11:23:43;22.90;99.90
12959;DHT22;6544;51.666;6.634;2023-07-13T11:26:38;23.00;99.90
12959;DHT22;6544;51.666;6.634;2023-07-13T11:29:09;22.90;99.90
12959;DHT22;6544;51.666;6.634;2023-07-13T11:31:36;23.10;99.90
12959;DHT22;6544;51.666;6.634;2023-07-13T11:34:12;23.30;99.90
12959;DHT22;6544;51.666;6.634;2023-07-13T11:36:43;23.40;99.90
12959;DHT22;6544;51.666;6.634;2023-07-13T11:39:19;23.40;99.90
12959;DHT22;6544;51.666;6.634;2023-07-13T11:41:50;23.50;99.90
12959;DHT22;6544;51.666;6.634;2023-07-13T11:44:19;23.50;99.90
12959;DHT22;6544;51.666;6.634;2023-07-13T11:46:48;23.60;99.90
12959;DHT22;6544;51.666;6.634;2023-07-13T11:49:17;23.70;99.90
12959;DHT22;6544;51.666;6.634;2023-07-13T11:51:46;23.70;99.90
12959;DHT22;6544;51.666;6.634;2023-07-13T11:54:25;23.60;99.90
12959;DHT22;6544;51.666;6.634;2023-07-13T11:56:53;23.10;99.90
12959;DHT22;6544;51.666;6.634;2023-07-13T11:59:21;23.50;99.90
12959;DHT22;6544;51.666;6.634;2023-07-13T12:01:52;23.70;99.90
12959;DHT22;6544;51.666;6.634;2023-07-13T12:04:22;23.70;99.90
12959;DHT22;6544;51.666;6.634;2023-07-13T12:06:56;23.60;99.90
12959;DHT22;6544;51.666;6.634;2023-07-13T12:09:27;23.70;99.90
12959;DHT22;6544;51.666;6.634;2023-07-13T12:11:57;23.40;99.90
12959;DHT22;6544;51.666;6.634;2023-07-13T12:14:27;23.60;99.90
12959;DHT22;6544;51.666;6.634;2023-07-13T12:16:55;23.20;99.90
12959;DHT22;6544;51.666;6.634;2023-07-13T12:19:24;23.40;99.90
12959;DHT22;6544;51.666;6.634;2023-07-13T12:21:58;23.40;99.90
12959;DHT22;6544;51.666;6.634;2023-07-13T12:24:27;23.20;99.90
12959;DHT22;6544;51.666;6.634;2023-07-13T12:27:01;22.60;99.90
12959;DHT22;6544;51.666;6.634;2023-07-13T12:29:30;21.00;1.00
12959;DHT22;6544;51.666;6.634;2023-07-13T12:31:58;20.00;1.00
12959;DHT22;6544;51.666;6.634;2023-07-13T12:34:26;18.90;99.90
12959;DHT22;6544;51.666;6.634;2023-07-13T12:36:56;18.50;99.90
12959;DHT22;6544;51.666;6.634;2023-07-13T12:39:25;18.10;1.00
12959;DHT22;6544;51.666;6.634;2023-07-13T12:42:17;18.00;1.00
12959;DHT22;6544;51.666;6.634;2023-07-13T12:44:45;18.10;99.90
12959;DHT22;6544;51.666;6.634;2023-07-13T12:47:14;18.10;99.90
12959;DHT22;6544;51.666;6.634;2023-07-13T12:49:43;18.00;99.90
12959;DHT22;6544;51.666;6.634;2023-07-13T12:52:17;18.30;99.90
12959;DHT22;6544;51.666;6.634;2023-07-13T12:54:53;18.30;99.90
12959;DHT22;6544;51.666;6.634;2023-07-13T12:57:23;18.90;99.90
12959;DHT22;6544;51.666;6.634;2023-07-13T12:59:52;19.30;99.90
12959;DHT22;6544;51.666;6.634;2023-07-13T13:02:26;19.60;99.90
12959;DHT22;6544;51.666;6.634;2023-07-13T13:04:55;19.80;38.90
12959;DHT22;6544;51.666;6.634;2023-07-13T13:07:24;19.90;1.00
12959;DHT22;6544;51.666;6.634;2023-07-13T13:09:52;20.00;1.00
12959;DHT22;6544;51.666;6.634;2023-07-13T13:12:20;20.10;1.00
12959;DHT22;6544;51.666;6.634;2023-07-13T13:14:47;20.10;1.00
12959;DHT22;6544;51.666;6.634;2023-07-13T13:17:19;19.70;1.00
12959;DHT22;6544;51.666;6.634;2023-07-13T13:19:46;19.40;1.00
12959;DHT22;6544;51.666;6.634;2023-07-13T13:22:13;19.90;1.00
12959;DHT22;6544;51.666;6.634;2023-07-13T13:24:42;19.70;1.00
12959;DHT22;6544;51.666;6.634;2023-07-13T13:27:17;20.00;1.00
12959;DHT22;6544;51.666;6.634;2023-07-13T13:29:45;20.10;1.00
12959;DHT22;6544;51.666;6.634;2023-07-13T13:32:13;20.10;1.00
12959;DHT22;6544;51.666;6.634;2023-07-13T13:34:40;19.20;1.00
12959;DHT22;6544;51.666;6.634;2023-07-13T13:37:17;18.80;1.00
12959;DHT22;6544;51.666;6.634;2023-07-13T13:39:46;19.10;1.00
12959;DHT22;6544;51.666;6.634;2023-07-13T13:42:13;19.30;1.00
12959;DHT22;6544;51.666;6.634;2023-07-13T13:44:40;19.70;1.00
12959;DHT22;6544;51.666;6.634;2023-07-13T13:47:21;20.00;1.00
12959;DHT22;6544;51.666;6.634;2023-07-13T13:49:50;20.10;1.00
12959;DHT22;6544;51.666;6.634;2023-07-13T13:52:17;20.10;1.00
12959;DHT22;6544;51.666;6.634;2023-07-13T13:54:46;20.00;1.00
12959;DHT22;6544;51.666;6.634;2023-07-13T13:57:12;20.20;1.00
12959;DHT22;6544;51.666;6.634;2023-07-13T13:59:39;20.30;99.90
12959;DHT22;6544;51.666;6.634;2023-07-13T14:02:21;20.10;1.00
12959;DHT22;6544;51.666;6.634;2023-07-13T14:07:17;20.10;1.00
12959;DHT22;6544;51.666;6.634;2023-07-13T14:09:44;20.10;1.00
12959;DHT22;6544;51.666;6.634;2023-07-13T14:12:12;20.20;1.00
12959;DHT22;6544;51.666;6.634;2023-07-13T14:14:39;20.30;1.00
12959;DHT22;6544;51.666;6.634;2023-07-13T14:17:19;20.30;1.00
12959;DHT22;6544;51.666;6.634;2023-07-13T14:19:47;20.50;1.00
12959;DHT22;6544;51.666;6.634;2023-07-13T14:22:16;20.70;1.00
12959;DHT22;6544;51.666;6.634;2023-07-13T14:24:43;20.70;1.00
12959;DHT22;6544;51.666;6.634;2023-07-13T14:27:12;20.70;1.00
12959;DHT22;6544;51.666;6.634;2023-07-13T14:29:39;20.60;1.00
12959;DHT22;6544;51.666;6.634;2023-07-13T14:32:10;20.70;1.00
12959;DHT22;6544;51.666;6.634;2023-07-13T14:34:37;20.80;1.00
12959;DHT22;6544;51.666;6.634;2023-07-13T14:37:04;20.90;1.00
12959;DHT22;6544;51.666;6.634;2023-07-13T14:39:32;20.90;1.00
12959;DHT22;6544;51.666;6.634;2023-07-13T14:41:58;21.10;1.00
12959;DHT22;6544;51.666;6.634;2023-07-13T14:44:28;21.20;1.00
12959;DHT22;6544;51.666;6.634;2023-07-13T14:46:57;21.10;1.00
12959;DHT22;6544;51.666;6.634;2023-07-13T14:49:27;21.20;1.00
12959;DHT22;6544;51.666;6.634;2023-07-13T14:51:55;21.20;1.00
12959;DHT22;6544;51.666;6.634;2023-07-13T14:54:23;21.20;1.00
12959;DHT22;6544;51.666;6.634;2023-07-13T14:56:50;21.30;1.00
12959;DHT22;6544;51.666;6.634;2023-07-13T14:59:17;21.30;1.00
12959;DHT22;6544;51.666;6.634;2023-07-13T15:01:47;21.40;1.00
12959;DHT22;6544;51.666;6.634;2023-07-13T15:04:15;21.40;1.00
12959;DHT22;6544;51.666;6.634;2023-07-13T15:06:56;21.30;1.00
12959;DHT22;6544;51.666;6.634;2023-07-13T15:09:27;21.00;1.00
12959;DHT22;6544;51.666;6.634;2023-07-13T15:11:57;20.30;1.00
12959;DHT22;6544;51.666;6.634;2023-07-13T15:14:25;19.80;35.50
12959;DHT22;6544;51.666;6.634;2023-07-13T15:16:56;19.40;99.90
12959;DHT22;6544;51.666;6.634;2023-07-13T15:19:23;19.40;99.90
12959;DHT22;6544;51.666;6.634;2023-07-13T15:21:51;19.40;99.90
12959;DHT22;6544;51.666;6.634;2023-07-13T15:24:19;19.40;99.90
12959;DHT22;6544;51.666;6.634;2023-07-13T15:26:47;19.70;99.90
12959;DHT22;6544;51.666;6.634;2023-07-13T15:29:15;19.80;77.80
12959;DHT22;6544;51.666;6.634;2023-07-13T15:31:43;19.80;58.30
12959;DHT22;6544;51.666;6.634;2023-07-13T15:34:13;20.00;77.40
12959;DHT22;6544;51.666;6.634;2023-07-13T15:36:40;20.10;44.30
12959;DHT22;6544;51.666;6.634;2023-07-13T15:39:13;20.30;1.00
12959;DHT22;6544;51.666;6.634;2023-07-13T15:41:42;20.40;1.00
12959;DHT22;6544;51.666;6.634;2023-07-13T15:44:23;20.50;1.00
12959;DHT22;6544;51.666;6.634;2023-07-13T15:46:51;20.50;1.00
12959;DHT22;6544;51.666;6.634;2023-07-13T15:49:19;20.30;1.00
12959;DHT22;6544;51.666;6.634;2023-07-13T15:51:47;20.50;1.00
12959;DHT22;6544;51.666;6.634;2023-07-13T15:54:16;20.60;1.00
12959;DHT22;6544;51.666;6.634;2023-07-13T15:56:45;20.50;1.00
12959;DHT22;6544;51.666;6.634;2023-07-13T15:59:14;20.50;1.00
12959;DHT22;6544;51.666;6.634;2023-07-13T16:01:41;20.50;1.00
12959;DHT22;6544;51.666;6.634;2023-07-13T16:04:11;20.50;1.00
12959;DHT22;6544;51.666;6.634;2023-07-13T16:06:41;20.60;1.00
12959;DHT22;6544;51.666;6.634;2023-07-13T16:09:10;20.60;1.00
12959;DHT22;6544;51.666;6.634;2023-07-13T16:11:40;20.70;1.00
12959;DHT22;6544;51.666;6.634;2023-07-13T16:14:12;20.70;1.00